Time;durP1;ratioP1;P1;durP2;ratioP2;P2;SDS_P1;SDS_P2;PMS_P1;PMS_P2;Temp;Humidity;BMP_temperature;BMP_pressure;BME280_temperature;BME280_humidity;BME280_pressure;Samples;Min_cycle;Max_cycle;Signal;HPM_P1;HPM_P2
2022/08/30 00:03:22;;;;;;;7.93;4.40;;;;;;;;;;4918110;29;20518;-82
2022/08/30 00:05:49;;;;;;;7.50;4.32;;;;;;;;;;4900593;29;20036;-82
2022/08/30 00:08:15;;;;;;;7.80;4.05;;;;;;;;;;4900600;29;20036;-74
2022/08/30 00:10:42;;;;;;;10.23;4.57;;;;;;;;;;4900690;29;20035;-83
2022/08/30 00:13:11;;;;;;;9.10;4.60;;;;;;;;;;4900656;29;20028;-74
2022/08/30 00:15:37;;;;;;;12.43;4.85;;;;;;;;;;4900538;29;20056;-76
2022/08/30 00:18:03;;;;;;;9.23;4.47;;;;;;;;;;4900407;29;20039;-82
2022/08/30 00:20:30;;;;;;;7.22;4.57;;;;;;;;;;4901059;29;20103;-74
2022/08/30 00:22:57;;;;;;;12.27;4.40;;;;;;;;;;4900875;29;20488;-74
2022/08/30 00:25:23;;;;;;;8.07;4.60;;;;;;;;;;4917415;29;20036;-80
2022/08/30 00:27:50;;;;;;;6.38;4.18;;;;;;;;;;4900567;29;20072;-82
2022/08/30 00:30:17;;;;;;;8.13;4.68;;;;;;;;;;4900412;29;20035;-82
2022/08/30 00:32:43;;;;;;;10.02;4.68;;;;;;;;;;4917658;29;20032;-82
2022/08/30 00:35:10;;;;;;;7.70;4.13;;;;;;;;;;4900456;29;20032;-82
2022/08/30 00:37:37;;;;;;;9.15;4.75;;;;;;;;;;4900847;29;20028;-81
2022/08/30 00:40:04;;;;;;;9.43;4.88;;;;;;;;;;4900398;29;20118;-73
2022/08/30 00:42:31;;;;;;;12.95;4.50;;;;;;;;;;4901258;29;20067;-82
2022/08/30 00:44:58;;;;;;;10.98;5.13;;;;;;;;;;4900237;29;20032;-82
2022/08/30 00:47:24;;;;;;;11.65;4.95;;;;;;;;;;4917816;29;20044;-82
2022/08/30 00:49:51;;;;;;;7.90;4.80;;;;;;;;;;4917336;29;20020;-82
2022/08/30 00:52:18;;;;;;;9.10;4.45;;;;;;;;;;4900574;29;20032;-82
2022/08/30 00:54:44;;;;;;;14.98;5.05;;;;;;;;;;4900523;29;20474;-82
2022/08/30 00:57:11;;;;;;;9.82;5.55;;;;;;;;;;4904097;29;20024;-82
2022/08/30 00:59:38;;;;;;;9.25;4.82;;;;;;;;;;4917204;29;20159;-81
2022/08/30 01:02:04;;;;;;;9.48;4.72;;;;;;;;;;4899976;29;20028;-82
2022/08/30 01:04:32;;;;;;;9.43;5.03;;;;;;;;;;4900868;29;20391;-82
2022/08/30 01:06:59;;;;;;;11.93;4.88;;;;;;;;;;4900656;29;20044;-82
2022/08/30 01:09:26;;;;;;;8.15;4.72;;;;;;;;;;4900013;29;20130;-82
2022/08/30 01:11:53;;;;;;;11.65;5.20;;;;;;;;;;4900187;29;20035;-82
2022/08/30 01:14:20;;;;;;;5.72;4.25;;;;;;;;;;4902831;29;20036;-82
2022/08/30 01:16:48;;;;;;;7.43;4.78;;;;;;;;;;4920513;29;20100;-82
2022/08/30 01:19:22;;;;;;;7.50;4.88;;;;;;;;;;4904310;29;20512;-81
2022/08/30 01:21:48;;;;;;;;;;;;;;;;;;4903889;29;20033;-80
2022/08/30 01:24:14;;;;;;;8.73;4.90;;;;;;;;;;4903545;29;19913;-82
2022/08/30 01:26:40;;;;;;;8.65;5.10;;;;;;;;;;4903821;29;20036;-82
2022/08/30 01:29:09;;;;;;;7.90;4.97;;;;;;;;;;4903637;29;20072;-80
2022/08/30 01:31:35;;;;;;;6.97;4.90;;;;;;;;;;4903721;29;20173;-76
2022/08/30 01:34:06;;;;;;;10.30;5.47;;;;;;;;;;4920036;29;20071;-82
2022/08/30 01:36:33;;;;;;;12.43;5.72;;;;;;;;;;4903187;29;20481;-83
2022/08/30 01:39:00;;;;;;;8.45;4.90;;;;;;;;;;4904177;29;20369;-81
2022/08/30 01:41:28;;;;;;;7.90;4.55;;;;;;;;;;4903079;29;20186;-77
2022/08/30 01:43:56;;;;;;;8.07;5.63;;;;;;;;;;4903140;29;20060;-82
2022/08/30 01:46:25;;;;;;;10.55;5.45;;;;;;;;;;4903008;29;20489;-82
2022/08/30 01:48:52;;;;;;;11.25;4.93;;;;;;;;;;4903298;29;20580;-82
2022/08/30 01:51:19;;;;;;;7.85;5.20;;;;;;;;;;4902668;29;20367;-81
2022/08/30 01:53:45;;;;;;;10.90;4.82;;;;;;;;;;4920720;29;20150;-80
2022/08/30 01:56:23;;;;;;;6.90;4.72;;;;;;;;;;4929872;29;20028;-82
2022/08/30 01:58:50;;;;;;;7.38;4.85;;;;;;;;;;4906652;29;20082;-82
2022/08/30 02:01:18;;;;;;;7.95;4.95;;;;;;;;;;4902627;29;20051;-84
2022/08/30 02:03:45;;;;;;;8.43;4.63;;;;;;;;;;4902559;29;20036;-75
2022/08/30 02:06:41;;;;;;;8.93;5.10;;;;;;;;;;4918966;29;20055;-83
2022/08/30 02:12:05;;;;;;;8.07;5.13;;;;;;;;;;5091775;23;20080;-82
2022/08/30 02:14:32;;;;;;;7.07;4.65;;;;;;;;;;4884836;29;20551;-75
2022/08/30 02:17:05;;;;;;;9.73;5.40;;;;;;;;;;4938144;29;20496;-82
2022/08/30 02:19:32;;;;;;;10.95;5.30;;;;;;;;;;4921241;29;20031;-83
2022/08/30 02:21:58;;;;;;;7.72;4.45;;;;;;;;;;4921534;29;20020;-74
2022/08/30 02:24:24;;;;;;;9.10;5.72;;;;;;;;;;4921134;29;20031;-83
2022/08/30 02:26:52;;;;;;;10.25;5.53;;;;;;;;;;4921832;29;20039;-74
2022/08/30 02:29:19;;;;;;;11.07;5.90;;;;;;;;;;4921790;29;20055;-83
2022/08/30 02:31:45;;;;;;;9.45;5.63;;;;;;;;;;4938200;29;20106;-74
2022/08/30 02:34:11;;;;;;;8.55;5.20;;;;;;;;;;4925632;29;20031;-83
2022/08/30 02:36:39;;;;;;;9.93;5.20;;;;;;;;;;4921025;29;20028;-83
2022/08/30 02:39:06;;;;;;;8.73;5.28;;;;;;;;;;4921126;29;20170;-82
2022/08/30 02:41:32;;;;;;;10.43;5.20;;;;;;;;;;4920627;29;20024;-73
2022/08/30 02:43:59;;;;;;;11.10;5.70;;;;;;;;;;4937552;29;20035;-83
2022/08/30 02:46:26;;;;;;;8.52;5.40;;;;;;;;;;4921165;29;20024;-83
2022/08/30 02:48:52;;;;;;;10.88;5.78;;;;;;;;;;4920770;29;20063;-83
2022/08/30 02:51:18;;;;;;;8.00;5.30;;;;;;;;;;4920682;29;20080;-82
2022/08/30 02:53:44;;;;;;;8.65;5.38;;;;;;;;;;4920481;29;20031;-84
2022/08/30 02:56:11;;;;;;;9.18;5.25;;;;;;;;;;4937922;29;20448;-73
2022/08/30 02:58:38;;;;;;;9.50;5.38;;;;;;;;;;4920430;29;20058;-83
2022/08/30 03:01:05;;;;;;;16.02;5.93;;;;;;;;;;4921338;29;20032;-83
2022/08/30 03:03:32;;;;;;;9.95;5.85;;;;;;;;;;4920572;29;20028;-83
2022/08/30 03:05:58;;;;;;;13.15;6.10;;;;;;;;;;4920697;29;20032;-74
2022/08/30 03:08:24;;;;;;;10.93;5.38;;;;;;;;;;4920415;29;20035;-74
2022/08/30 03:10:51;;;;;;;9.50;5.35;;;;;;;;;;4920012;29;20071;-82
2022/08/30 03:13:17;;;;;;;14.57;5.25;;;;;;;;;;4920314;29;20036;-84
2022/08/30 03:15:43;;;;;;;15.73;5.32;;;;;;;;;;4920542;29;20469;-74
2022/08/30 03:18:09;;;;;;;9.27;5.15;;;;;;;;;;4920099;29;20032;-83
2022/08/30 03:20:35;;;;;;;10.35;4.75;;;;;;;;;;4937163;29;20039;-83
2022/08/30 03:23:02;;;;;;;8.07;5.32;;;;;;;;;;4921261;29;20035;-74
2022/08/30 03:25:28;;;;;;;8.35;5.07;;;;;;;;;;4920960;29;20148;-83
2022/08/30 03:27:54;;;;;;;7.40;4.70;;;;;;;;;;4937640;29;20043;-82
2022/08/30 03:30:20;;;;;;;9.23;5.75;;;;;;;;;;4919850;29;20048;-75
2022/08/30 03:32:47;;;;;;;13.18;5.63;;;;;;;;;;4937479;29;20423;-79
2022/08/30 03:35:14;;;;;;;9.40;6.00;;;;;;;;;;4936498;29;20027;-74
2022/08/30 03:37:40;;;;;;;9.40;6.38;;;;;;;;;;4919780;29;20020;-84
2022/08/30 03:40:07;;;;;;;9.35;5.85;;;;;;;;;;4919963;29;20067;-83
2022/08/30 03:42:35;;;;;;;14.93;5.85;;;;;;;;;;4919717;29;20174;-82
2022/08/30 03:45:01;;;;;;;12.00;5.10;;;;;;;;;;4936724;29;20107;-82
2022/08/30 03:47:28;;;;;;;10.20;6.20;;;;;;;;;;4936961;29;20114;-82
2022/08/30 03:49:55;;;;;;;13.07;6.30;;;;;;;;;;4920181;29;20485;-83
2022/08/30 03:52:21;;;;;;;12.73;5.90;;;;;;;;;;4919694;29;20115;-82
2022/08/30 03:54:47;;;;;;;12.68;4.88;;;;;;;;;;4920294;29;20124;-83
2022/08/30 03:57:13;;;;;;;9.63;6.15;;;;;;;;;;4937421;29;20031;-82
2022/08/30 03:59:40;;;;;;;9.88;5.00;;;;;;;;;;4919891;29;20031;-83
2022/08/30 04:02:06;;;;;;;14.20;5.75;;;;;;;;;;4919735;29;20031;-84
2022/08/30 04:04:32;;;;;;;9.55;5.90;;;;;;;;;;4920167;29;20028;-83
2022/08/30 04:06:58;;;;;;;7.97;5.80;;;;;;;;;;4919715;29;20047;-82
2022/08/30 04:09:24;;;;;;;11.77;6.13;;;;;;;;;;4937640;29;20030;-82
2022/08/30 04:11:50;;;;;;;11.63;5.60;;;;;;;;;;4920694;29;20095;-75
2022/08/30 04:14:17;;;;;;;12.95;5.72;;;;;;;;;;4919215;29;20428;-82
2022/08/30 04:16:43;;;;;;;17.73;5.68;;;;;;;;;;4919565;29;20439;-83
2022/08/30 04:19:09;;;;;;;10.68;5.45;;;;;;;;;;4919414;29;20031;-82
2022/08/30 04:21:35;;;;;;;7.82;5.10;;;;;;;;;;4919372;29;20028;-84
2022/08/30 04:24:02;;;;;;;15.57;5.60;;;;;;;;;;4919390;29;20034;-82
2022/08/30 04:26:29;;;;;;;9.02;5.75;;;;;;;;;;4919321;29;20075;-83
2022/08/30 04:28:55;;;;;;;7.97;5.20;;;;;;;;;;4936156;29;20540;-73
2022/08/30 04:31:21;;;;;;;7.15;5.05;;;;;;;;;;4919437;29;20023;-82
2022/08/30 04:33:48;;;;;;;9.32;4.65;;;;;;;;;;4919066;29;20046;-84
2022/08/30 04:36:14;;;;;;;6.20;4.38;;;;;;;;;;4936475;29;20016;-74
2022/08/30 04:38:41;;;;;;;8.30;4.85;;;;;;;;;;4918951;29;20129;-74
2022/08/30 04:41:11;;;;;;;11.00;5.03;;;;;;;;;;4936489;29;20488;-73
2022/08/30 04:43:41;;;;;;;10.38;5.15;;;;;;;;;;4918734;29;20036;-74
2022/08/30 04:46:08;;;;;;;7.60;4.70;;;;;;;;;;4920471;29;20103;-83
2022/08/30 04:48:35;;;;;;;9.30;5.05;;;;;;;;;;4921641;29;20039;-82
2022/08/30 04:51:03;;;;;;;12.77;5.80;;;;;;;;;;4923108;29;20027;-83
2022/08/30 04:53:29;;;;;;;12.23;5.65;;;;;;;;;;4940606;29;20023;-83
2022/08/30 04:55:56;;;;;;;9.82;5.13;;;;;;;;;;4923579;29;20531;-73
2022/08/30 04:58:22;;;;;;;8.45;4.95;;;;;;;;;;4940201;29;20059;-73
2022/08/30 05:00:48;;;;;;;12.50;5.53;;;;;;;;;;4922946;29;20040;-74
2022/08/30 05:03:16;;;;;;;7.45;5.10;;;;;;;;;;4940322;29;20067;-83
2022/08/30 05:05:47;;;;;;;9.80;5.90;;;;;;;;;;4922810;29;20485;-83
2022/08/30 05:08:15;;;;;;;12.35;5.32;;;;;;;;;;4922553;29;20036;-83
2022/08/30 05:10:42;;;;;;;10.77;5.07;;;;;;;;;;4922032;29;20480;-75
2022/08/30 05:13:08;;;;;;;8.48;5.28;;;;;;;;;;4922465;29;20042;-82
2022/08/30 05:15:35;;;;;;;11.10;5.35;;;;;;;;;;4922446;29;20031;-83
2022/08/30 05:18:01;;;;;;;12.63;5.25;;;;;;;;;;4922279;29;20397;-84
2022/08/30 05:20:28;;;;;;;7.28;5.22;;;;;;;;;;4939366;29;20023;-74
2022/08/30 05:22:54;;;;;;;10.43;4.97;;;;;;;;;;4940284;29;20032;-83
2022/08/30 05:25:21;;;;;;;8.52;4.75;;;;;;;;;;4922409;29;20107;-73
2022/08/30 05:27:48;;;;;;;9.23;4.95;;;;;;;;;;4922056;29;20074;-83
2022/08/30 05:30:15;;;;;;;7.97;4.20;;;;;;;;;;4922243;29;20502;-83
2022/08/30 05:32:41;;;;;;;9.05;4.43;;;;;;;;;;4922212;29;20536;-83
2022/08/30 05:35:08;;;;;;;8.68;3.97;;;;;;;;;;4922634;29;20031;-83
2022/08/30 05:37:34;;;;;;;14.02;4.43;;;;;;;;;;4922844;29;20478;-84
2022/08/30 05:40:07;;;;;;;9.38;3.38;;;;;;;;;;4941491;29;20071;-83
2022/08/30 05:42:40;;;;;;;7.68;3.45;;;;;;;;;;4929649;29;20099;-74
2022/08/30 05:45:09;;;;;;;7.13;2.72;;;;;;;;;;4929436;29;20035;-84
2022/08/30 05:47:36;;;;;;;8.93;2.90;;;;;;;;;;4929827;29;20062;-74
2022/08/30 05:50:03;;;;;;;6.78;2.40;;;;;;;;;;4922866;29;20031;-84
2022/08/30 05:52:29;;;;;;;8.38;2.60;;;;;;;;;;4921372;29;20122;-85
2022/08/30 05:54:59;;;;;;;5.20;1.92;;;;;;;;;;4921974;29;20035;-84
2022/08/30 05:57:25;;;;;;;5.05;2.05;;;;;;;;;;4921650;29;20051;-85
2022/08/30 05:59:51;;;;;;;7.65;2.10;;;;;;;;;;4938694;29;20055;-85
2022/08/30 06:02:21;;;;;;;3.70;1.60;;;;;;;;;;4921721;29;20514;-85
2022/08/30 06:04:47;;;;;;;4.82;1.45;;;;;;;;;;4922564;29;20024;-85
2022/08/30 06:07:13;;;;;;;3.25;1.52;;;;;;;;;;4921977;29;20042;-81
2022/08/30 06:09:39;;;;;;;4.07;1.52;;;;;;;;;;4921006;29;20723;-76
2022/08/30 06:12:05;;;;;;;4.32;1.30;;;;;;;;;;4939326;29;20493;-76
2022/08/30 06:14:31;;;;;;;3.75;1.38;;;;;;;;;;4922678;29;20024;-76
2022/08/30 06:16:58;;;;;;;3.45;1.45;;;;;;;;;;4940777;29;20087;-78
2022/08/30 06:19:24;;;;;;;5.40;1.55;;;;;;;;;;4921271;29;20031;-76
2022/08/30 06:21:50;;;;;;;5.45;1.70;;;;;;;;;;4918471;29;20417;-80
2022/08/30 06:24:17;;;;;;;4.20;1.80;;;;;;;;;;4927732;29;20094;-82
2022/08/30 06:26:44;;;;;;;5.72;1.60;;;;;;;;;;4921690;29;20063;-79
2022/08/30 06:29:11;;;;;;;4.00;1.40;;;;;;;;;;4938194;29;20032;-76
2022/08/30 06:31:37;;;;;;;3.90;1.13;;;;;;;;;;4938226;29;20032;-80
2022/08/30 06:34:04;;;;;;;5.28;1.20;;;;;;;;;;4940540;29;20107;-78
2022/08/30 06:36:30;;;;;;;3.95;1.23;;;;;;;;;;4938231;29;20047;-74
2022/08/30 06:38:57;;;;;;;5.55;1.70;;;;;;;;;;4920955;29;20023;-83
2022/08/30 06:41:26;;;;;;;2.20;1.00;;;;;;;;;;4920786;29;20031;-74
2022/08/30 06:43:53;;;;;;;3.80;1.27;;;;;;;;;;4918194;29;20034;-77
2022/08/30 06:46:21;;;;;;;3.15;1.10;;;;;;;;;;4917119;29;20401;-80
2022/08/30 06:48:47;;;;;;;2.92;1.33;;;;;;;;;;4902366;29;20048;-79
2022/08/30 06:51:14;;;;;;;3.58;1.10;;;;;;;;;;4917163;29;20031;-80
2022/08/30 06:53:40;;;;;;;4.03;1.27;;;;;;;;;;4917814;29;20036;-81
2022/08/30 06:56:07;;;;;;;2.97;1.20;;;;;;;;;;4918152;29;20063;-82
2022/08/30 07:01:12;;;;;;;4.95;1.10;;;;;;;;;;4886821;29;20498;-78
2022/08/30 07:03:38;;;;;;;4.10;1.10;;;;;;;;;;4882795;29;20542;-74
2022/08/30 07:06:04;;;;;;;4.78;1.08;;;;;;;;;;4899509;29;20122;-76
2022/08/30 07:08:30;;;;;;;3.83;1.15;;;;;;;;;;4882407;29;20048;-77
2022/08/30 07:10:57;;;;;;;3.92;1.60;;;;;;;;;;4881694;29;20379;-81
2022/08/30 07:13:23;;;;;;;3.55;1.20;;;;;;;;;;4882500;29;20028;-81
2022/08/30 07:15:50;;;;;;;5.38;1.38;;;;;;;;;;4882376;29;20546;-83
2022/08/30 07:21:09;;;;;;;2.15;1.13;;;;;;;;;;4899620;29;20039;-81
2022/08/30 07:23:35;;;;;;;4.43;1.20;;;;;;;;;;4882707;29;20040;-78
2022/08/30 07:26:06;;;;;;;2.67;1.00;;;;;;;;;;4882604;29;20159;-77
2022/08/30 07:28:33;;;;;;;5.50;1.42;;;;;;;;;;4898780;29;20041;-83
2022/08/30 07:30:59;;;;;;;7.78;1.30;;;;;;;;;;4898960;29;20021;-79
2022/08/30 07:36:01;;;;;;;4.20;1.30;;;;;;;;;;4929137;23;20064;-79
2022/08/30 07:38:33;;;;;;;3.17;1.13;;;;;;;;;;4911810;29;20026;-80
2022/08/30 07:41:35;;;;;;;1.90;1.00;;;;;;;;;;4935000;29;20620;-81
2022/08/30 07:44:02;;;;;;;3.33;1.15;;;;;;;;;;4876881;29;20081;-77
2022/08/30 07:46:45;;;;;;;7.13;1.55;;;;;;;;;;4880520;29;20110;-84
2022/08/30 07:49:11;;;;;;;4.82;1.23;;;;;;;;;;4880885;29;20036;-80
2022/08/30 07:51:38;;;;;;;2.03;0.95;;;;;;;;;;4880967;29;20036;-80
2022/08/30 07:54:09;;;;;;;4.53;1.20;;;;;;;;;;4881773;29;20141;-88
2022/08/30 07:56:35;;;;;;;;;;;;;;;;;;4881912;29;20040;-85
2022/08/30 07:59:10;;;;;;;2.50;0.90;;;;;;;;;;4881776;29;20343;-79
2022/08/30 08:01:36;;;;;;;4.57;1.08;;;;;;;;;;4881962;29;20498;-82
2022/08/30 08:04:03;;;;;;;3.70;1.23;;;;;;;;;;4880735;29;20039;-85
2022/08/30 08:06:29;;;;;;;1.52;0.85;;;;;;;;;;4874483;29;20415;-74
2022/08/30 08:09:00;;;;;;;2.20;0.95;;;;;;;;;;4907102;29;20052;-78
2022/08/30 08:11:27;;;;;;;3.10;0.98;;;;;;;;;;4900573;29;20439;-75
2022/08/30 08:13:54;;;;;;;5.38;1.27;;;;;;;;;;4898794;29;20028;-79
2022/08/30 08:16:24;;;;;;;3.40;1.15;;;;;;;;;;4900071;29;20068;-82
2022/08/30 08:18:50;;;;;;;4.18;1.20;;;;;;;;;;4917501;29;20029;-78
2022/08/30 08:21:16;;;;;;;3.38;1.20;;;;;;;;;;4900394;29;20374;-75
2022/08/30 08:23:43;;;;;;;3.55;1.58;;;;;;;;;;4904386;29;20466;-78
2022/08/30 08:26:09;;;;;;;2.55;1.30;;;;;;;;;;4921318;29;20099;-77
2022/08/30 08:28:35;;;;;;;5.20;1.02;;;;;;;;;;4904551;29;20493;-78
2022/08/30 08:31:02;;;;;;;2.13;0.98;;;;;;;;;;4904675;29;20051;-75
2022/08/30 08:33:28;;;;;;;4.22;1.15;;;;;;;;;;4921068;29;20051;-84
2022/08/30 08:35:54;;;;;;;3.60;1.10;;;;;;;;;;4903996;29;20044;-84
2022/08/30 08:38:21;;;;;;;5.82;1.42;;;;;;;;;;4935492;29;20056;-84
2022/08/30 08:41:05;;;;;;;3.20;1.48;;;;;;;;;;4920898;29;20040;-75
2022/08/30 08:43:33;;;;;;;3.38;1.25;;;;;;;;;;4904049;29;20039;-84
2022/08/30 08:46:11;;;;;;;4.03;1.20;;;;;;;;;;4904061;29;20032;-82
2022/08/30 08:48:49;;;;;;;7.13;1.45;;;;;;;;;;4903969;29;20160;-84
2022/08/30 08:54:07;;;;;;;2.33;1.17;;;;;;;;;;4921171;29;20055;-82
2022/08/30 08:56:35;;;;;;;3.08;1.30;;;;;;;;;;4904102;29;20028;-83
2022/08/30 08:59:01;;;;;;;5.43;1.10;;;;;;;;;;4903660;29;20024;-75
2022/08/30 09:01:29;;;;;;;4.18;1.30;;;;;;;;;;4935096;29;20118;-75
2022/08/30 09:04:01;;;;;;;5.57;1.20;;;;;;;;;;4925353;29;20040;-84
2022/08/30 09:06:40;;;;;;;6.53;1.33;;;;;;;;;;4926130;29;20028;-79
2022/08/30 09:09:06;;;;;;;4.15;1.40;;;;;;;;;;4916650;29;20493;-83
2022/08/30 09:11:33;;;;;;;3.70;1.27;;;;;;;;;;4925848;29;20107;-83
2022/08/30 09:13:59;;;;;;;2.55;1.10;;;;;;;;;;4928747;29;20028;-75
2022/08/30 09:16:46;;;;;;;2.63;1.10;;;;;;;;;;4927122;29;20079;-75
2022/08/30 09:19:27;;;;;;;3.60;1.25;;;;;;;;;;4917099;29;20482;-75
2022/08/30 09:21:57;;;;;;;6.47;1.45;;;;;;;;;;4928196;29;20462;-83
2022/08/30 09:24:24;;;;;;;3.90;1.00;;;;;;;;;;4901815;29;20453;-75
2022/08/30 09:26:50;;;;;;;5.63;1.25;;;;;;;;;;4918967;29;20363;-75
2022/08/30 09:29:17;;;;;;;3.17;1.38;;;;;;;;;;4925611;29;20110;-79
2022/08/30 09:31:52;;;;;;;8.13;2.55;;;;;;;;;;4902271;29;20072;-79
2022/08/30 09:34:20;;;;;;;4.93;1.30;;;;;;;;;;4883268;29;20049;-83
2022/08/30 09:36:50;;;;;;;8.23;1.17;;;;;;;;;;4901227;29;20060;-85
2022/08/30 09:39:26;;;;;;;5.00;1.00;;;;;;;;;;4884282;29;20029;-76
2022/08/30 09:41:52;;;;;;;3.17;1.30;;;;;;;;;;4884119;29;20036;-82
2022/08/30 09:44:20;;;;;;;3.55;1.20;;;;;;;;;;4902179;29;20115;-88
2022/08/30 09:46:48;;;;;;;2.83;1.30;;;;;;;;;;4884351;29;20039;-90
2022/08/30 09:49:32;;;;;;;4.15;1.55;;;;;;;;;;4884993;29;20029;-76
2022/08/30 09:52:11;;;;;;;4.47;1.27;;;;;;;;;;4884435;29;20056;-89
2022/08/30 09:54:43;;;;;;;2.45;1.00;;;;;;;;;;4884175;29;20557;-76
2022/08/30 09:57:15;;;;;;;5.00;1.50;;;;;;;;;;4884349;29;20021;-76
2022/08/30 09:59:58;;;;;;;3.08;1.20;;;;;;;;;;4884332;29;20471;-76
2022/08/30 10:02:29;;;;;;;2.92;1.33;;;;;;;;;;4884132;29;20080;-77
2022/08/30 10:04:55;;;;;;;3.00;1.42;;;;;;;;;;4884244;29;20119;-76
2022/08/30 10:07:33;;;;;;;7.95;1.38;;;;;;;;;;4884773;29;20044;-75
2022/08/30 10:09:59;;;;;;;4.97;1.42;;;;;;;;;;4884052;29;20025;-77
2022/08/30 10:12:44;;;;;;;3.22;1.27;;;;;;;;;;4884861;29;20092;-86
2022/08/30 10:15:16;;;;;;;2.45;1.00;;;;;;;;;;4900691;29;20021;-76
2022/08/30 10:17:46;;;;;;;3.03;1.33;;;;;;;;;;4884647;29;20087;-82
2022/08/30 10:20:26;;;;;;;4.47;1.40;;;;;;;;;;4884274;29;20048;-76
2022/08/30 10:22:55;;;;;;;4.37;1.43;;;;;;;;;;4899657;29;20043;-77
2022/08/30 10:25:28;;;;;;;4.55;1.25;;;;;;;;;;4900390;29;20505;-77
2022/08/30 10:27:58;;;;;;;3.75;1.02;;;;;;;;;;4883799;29;20490;-75
2022/08/30 10:30:24;;;;;;;3.67;1.40;;;;;;;;;;4887297;29;20550;-77
2022/08/30 10:33:09;;;;;;;2.70;1.27;;;;;;;;;;4919666;29;20136;-76
2022/08/30 10:35:47;;;;;;;3.00;1.10;;;;;;;;;;4916712;29;20450;-88
2022/08/30 10:38:32;;;;;;;4.15;1.15;;;;;;;;;;4918847;29;20032;-86
2022/08/30 10:41:13;;;;;;;3.03;1.27;;;;;;;;;;4929935;29;20032;-86
2022/08/30 10:43:39;;;;;;;13.73;1.60;;;;;;;;;;4920286;29;20053;-77
2022/08/30 10:46:09;;;;;;;4.68;1.10;;;;;;;;;;4917921;29;20063;-77
2022/08/30 10:48:39;;;;;;;4.80;1.30;;;;;;;;;;4919070;29;20409;-77
2022/08/30 10:51:10;;;;;;;2.90;1.20;;;;;;;;;;4921906;29;20072;-90
2022/08/30 10:54:05;;;;;;;5.32;1.17;;;;;;;;;;4898334;29;20035;-89
2022/08/30 10:56:33;;;;;;;14.85;1.80;;;;;;;;;;4881297;29;20039;-76
2022/08/30 10:58:59;;;;;;;6.57;1.20;;;;;;;;;;4918060;29;20031;-76
2022/08/30 11:01:39;;;;;;;4.85;1.10;;;;;;;;;;4925947;29;20512;-80
2022/08/30 11:04:24;;;;;;;2.42;0.90;;;;;;;;;;4899452;29;20025;-75
2022/08/30 11:07:09;;;;;;;2.15;1.15;;;;;;;;;;4924574;29;20032;-75
2022/08/30 11:09:40;;;;;;;1.50;0.93;;;;;;;;;;4900238;29;20063;-84
2022/08/30 11:12:13;;;;;;;5.18;1.33;;;;;;;;;;4919049;29;20070;-77
2022/08/30 11:14:41;;;;;;;2.47;1.30;;;;;;;;;;4918057;29;20359;-81
2022/08/30 11:17:22;;;;;;;2.65;1.20;;;;;;;;;;4917819;29;20039;-77
2022/08/30 11:19:49;;;;;;;6.00;1.10;;;;;;;;;;4917100;29;20020;-75
2022/08/30 11:22:26;;;;;;;4.60;1.25;;;;;;;;;;4917607;29;20485;-75
2022/08/30 11:25:04;;;;;;;3.47;1.30;;;;;;;;;;4901599;29;20040;-77
2022/08/30 11:27:41;;;;;;;3.90;1.50;;;;;;;;;;4901757;29;20036;-76
2022/08/30 11:30:25;;;;;;;4.15;1.40;;;;;;;;;;4900407;29;20096;-77
2022/08/30 11:33:10;;;;;;;3.72;1.33;;;;;;;;;;4916363;29;20453;-76
2022/08/30 11:35:51;;;;;;;5.75;1.67;;;;;;;;;;4908875;29;20052;-78
2022/08/30 11:38:27;;;;;;;4.32;1.50;;;;;;;;;;4889590;29;20496;-74
2022/08/30 11:40:59;;;;;;;2.97;1.48;;;;;;;;;;4909277;29;20035;-87
2022/08/30 11:43:34;;;;;;;4.95;1.75;;;;;;;;;;4909861;29;20036;-74
2022/08/30 11:46:23;;;;;;;3.63;1.63;;;;;;;;;;4906974;29;20036;-75
2022/08/30 11:48:51;;;;;;;3.55;1.45;;;;;;;;;;4917147;29;20036;-74
2022/08/30 11:51:37;;;;;;;4.03;1.52;;;;;;;;;;4917433;29;20020;-89
2022/08/30 11:54:03;;;;;;;5.60;1.55;;;;;;;;;;4879401;29;20041;-87
2022/08/30 11:56:40;;;;;;;6.10;1.90;;;;;;;;;;4898026;29;20029;-77
2022/08/30 11:59:17;;;;;;;2.90;1.30;;;;;;;;;;4897872;29;20032;-76
2022/08/30 12:01:44;;;;;;;3.20;1.55;;;;;;;;;;4898807;29;20032;-73
2022/08/30 12:04:16;;;;;;;3.88;1.48;;;;;;;;;;4897875;29;20037;-74
2022/08/30 12:07:04;;;;;;;7.47;1.73;;;;;;;;;;4916899;29;20123;-92
2022/08/30 12:09:31;;;;;;;5.20;1.27;;;;;;;;;;4918196;29;20036;-75
2022/08/30 12:12:06;;;;;;;4.43;1.42;;;;;;;;;;4918000;29;20024;-74
2022/08/30 12:14:33;;;;;;;3.42;1.40;;;;;;;;;;4917585;29;20593;-74
2022/08/30 12:19:46;;;;;;;6.50;1.60;;;;;;;;;;4898670;29;20048;-76
2022/08/30 12:22:16;;;;;;;2.60;1.40;;;;;;;;;;4898270;29;20035;-73
2022/08/30 12:24:43;;;;;;;4.22;1.45;;;;;;;;;;4889971;29;20091;-73
2022/08/30 12:27:29;;;;;;;9.85;1.52;;;;;;;;;;4881659;29;20033;-76
2022/08/30 12:30:00;;;;;;;3.67;1.30;;;;;;;;;;4881171;29;20474;-79
2022/08/30 12:32:27;;;;;;;4.47;1.10;;;;;;;;;;4881919;29;20097;-77
2022/08/30 12:34:54;;;;;;;6.15;1.30;;;;;;;;;;4890807;29;20487;-75
2022/08/30 12:37:22;;;;;;;5.55;1.27;;;;;;;;;;4917099;29;20020;-75
2022/08/30 12:39:49;;;;;;;4.47;1.38;;;;;;;;;;4917133;29;20103;-73
2022/08/30 12:42:20;;;;;;;5.20;1.10;;;;;;;;;;4917105;29;20054;-75
2022/08/30 12:44:47;;;;;;;3.00;1.30;;;;;;;;;;4900011;29;20028;-75
2022/08/30 12:47:16;;;;;;;3.28;1.25;;;;;;;;;;4900090;29;20040;-76
2022/08/30 12:49:45;;;;;;;3.63;1.10;;;;;;;;;;4917643;29;20025;-75
2022/08/30 12:52:28;;;;;;;5.03;1.38;;;;;;;;;;4899969;29;20028;-76
2022/08/30 12:54:56;;;;;;;3.35;1.30;;;;;;;;;;4899999;29;20032;-76
2022/08/30 12:57:42;;;;;;;5.28;1.20;;;;;;;;;;4900108;29;20032;-75
2022/08/30 13:00:23;;;;;;;2.72;1.10;;;;;;;;;;4899223;29;20028;-87
2022/08/30 13:02:51;;;;;;;2.92;1.02;;;;;;;;;;4899790;29;20035;-78
2022/08/30 13:05:30;;;;;;;6.38;1.50;;;;;;;;;;4899356;29;20025;-83
2022/08/30 13:08:15;;;;;;;3.58;1.08;;;;;;;;;;4901121;29;20077;-83
2022/08/30 13:11:02;;;;;;;3.42;1.10;;;;;;;;;;4903463;29;20123;-83
2022/08/30 13:13:28;;;;;;;4.25;1.20;;;;;;;;;;4903409;29;20099;-85
2022/08/30 13:16:12;;;;;;;3.20;1.23;;;;;;;;;;4903486;29;20024;-86
2022/08/30 13:18:41;;;;;;;2.88;1.10;;;;;;;;;;4904695;29;20080;-86
2022/08/30 13:21:26;;;;;;;3.65;1.27;;;;;;;;;;4909252;29;20041;-88
2022/08/30 13:24:00;;;;;;;2.42;1.30;;;;;;;;;;4907920;29;20049;-76
2022/08/30 13:26:26;;;;;;;6.70;1.20;;;;;;;;;;4918773;29;20111;-79
2022/08/30 13:28:54;;;;;;;3.15;0.95;;;;;;;;;;4903946;29;20038;-76
2022/08/30 13:31:20;;;;;;;2.53;1.00;;;;;;;;;;4903448;29;20028;-74
2022/08/30 13:33:51;;;;;;;3.63;0.93;;;;;;;;;;4903742;29;20032;-75
2022/08/30 13:36:17;;;;;;;3.70;2.00;;;;;;;;;;4918302;29;20028;-75
2022/08/30 13:38:43;;;;;;;2.97;1.02;;;;;;;;;;4919894;29;20099;-75
2022/08/30 13:41:10;;;;;;;6.35;1.30;;;;;;;;;;4903031;29;20032;-75
2022/08/30 13:43:42;;;;;;;3.55;1.30;;;;;;;;;;4919932;29;20056;-90
2022/08/30 13:46:12;;;;;;;3.10;0.80;;;;;;;;;;4920523;29;20047;-91
2022/08/30 13:48:41;;;;;;;4.75;1.10;;;;;;;;;;4904021;29;20032;-89
2022/08/30 13:51:44;;;;;;;3.55;1.00;;;;;;;;;;4904722;29;20032;-88
2022/08/30 13:54:10;;;;;;;;;;;;;;;;;;4905505;29;20059;-90
2022/08/30 13:56:40;;;;;;;3.97;0.80;;;;;;;;;;4904529;29;19929;-91
2022/08/30 13:59:10;;;;;;;3.03;1.15;;;;;;;;;;4890146;29;20397;-90
2022/08/30 14:01:36;;;;;;;4.60;0.95;;;;;;;;;;4903961;29;20058;-75
2022/08/30 14:04:08;;;;;;;4.53;1.23;;;;;;;;;;4921832;29;20024;-90
2022/08/30 14:06:40;;;;;;;5.60;1.33;;;;;;;;;;4903467;29;20031;-89
2022/08/30 14:09:06;;;;;;;4.10;1.23;;;;;;;;;;4922146;29;20036;-91
2022/08/30 14:11:33;;;;;;;3.72;1.02;;;;;;;;;;4904250;29;20063;-88
2022/08/30 14:13:59;;;;;;;5.35;1.00;;;;;;;;;;4903060;29;20032;-89
2022/08/30 14:16:26;;;;;;;4.20;1.40;;;;;;;;;;4919815;29;20028;-75
2022/08/30 14:18:52;;;;;;;3.55;1.20;;;;;;;;;;4920295;29;20040;-75
2022/08/30 14:21:18;;;;;;;3.45;0.85;;;;;;;;;;4919923;29;20035;-76
2022/08/30 14:26:19;;;;;;;2.28;1.00;;;;;;;;;;4899845;29;20135;-92
2022/08/30 14:28:47;;;;;;;4.38;1.38;;;;;;;;;;4900285;29;20096;-72
2022/08/30 14:31:15;;;;;;;3.55;1.45;;;;;;;;;;4899464;29;20028;-88
2022/08/30 14:33:41;;;;;;;2.00;0.98;;;;;;;;;;4899743;29;20033;-75
2022/08/30 14:36:07;;;;;;;2.20;1.05;;;;;;;;;;4898999;29;20474;-75
2022/08/30 14:38:36;;;;;;;2.80;1.05;;;;;;;;;;4900657;29;20394;-90
2022/08/30 14:41:03;;;;;;;2.80;1.10;;;;;;;;;;4900455;29;20033;-86
2022/08/30 14:43:29;;;;;;;3.03;1.17;;;;;;;;;;4899182;29;20056;-73
2022/08/30 14:45:57;;;;;;;6.00;1.40;;;;;;;;;;4898958;29;20367;-88
2022/08/30 14:48:23;;;;;;;2.58;1.27;;;;;;;;;;4898907;29;20036;-83
2022/08/30 14:50:55;;;;;;;3.25;1.25;;;;;;;;;;4894114;29;20056;-74
2022/08/30 14:53:24;;;;;;;2.55;1.20;;;;;;;;;;4899114;29;20036;-83
2022/08/30 14:55:57;;;;;;;4.35;1.10;;;;;;;;;;4900952;29;20032;-90
2022/08/30 14:58:23;;;;;;;6.72;1.30;;;;;;;;;;4900755;29;20025;-89
2022/08/30 15:00:50;;;;;;;3.15;1.00;;;;;;;;;;4898994;29;20065;-77
2022/08/30 15:03:27;;;;;;;2.85;1.30;;;;;;;;;;4898960;29;20035;-80
2022/08/30 15:06:10;;;;;;;3.95;1.58;;;;;;;;;;4900769;29;20454;-93
2022/08/30 15:08:36;;;;;;;2.78;1.23;;;;;;;;;;4897571;29;20041;-76
2022/08/30 15:11:06;;;;;;;4.78;1.20;;;;;;;;;;4898924;29;20032;-80
2022/08/30 15:13:32;;;;;;;5.15;1.40;;;;;;;;;;4895749;29;20482;-76
2022/08/30 15:15:58;;;;;;;3.10;1.20;;;;;;;;;;4898083;29;20028;-85
2022/08/30 15:18:25;;;;;;;2.38;1.05;;;;;;;;;;4901383;29;20064;-77